sensor_id;sensor_type;location;lat;lon;timestamp;temperature;humidity
61912;DHT22;49973;52.084;5.412;2023-05-07T00:00:47;14.80;99.90
61912;DHT22;49973;52.084;5.412;2023-05-07T00:03:15;14.80;99.90
61912;DHT22;49973;52.084;5.412;2023-05-07T00:05:44;14.80;99.90
61912;DHT22;49973;52.084;5.412;2023-05-07T00:08:15;14.70;99.90
61912;DHT22;49973;52.084;5.412;2023-05-07T00:10:43;14.60;99.90
61912;DHT22;49973;52.084;5.412;2023-05-07T00:13:14;14.70;99.90
61912;DHT22;49973;52.084;5.412;2023-05-07T00:15:43;14.60;99.90
61912;DHT22;49973;52.084;5.412;2023-05-07T00:18:11;14.70;99.90
61912;DHT22;49973;52.084;5.412;2023-05-07T00:20:40;14.60;99.90
61912;DHT22;49973;52.084;5.412;2023-05-07T00:23:09;14.60;99.90
61912;DHT22;49973;52.084;5.412;2023-05-07T00:25:39;14.50;99.90
61912;DHT22;49973;52.084;5.412;2023-05-07T00:28:08;14.50;99.90
61912;DHT22;49973;52.084;5.412;2023-05-07T00:30:36;14.50;99.90
61912;DHT22;49973;52.084;5.412;2023-05-07T00:33:05;14.40;99.90
61912;DHT22;49973;52.084;5.412;2023-05-07T00:35:34;14.60;99.90
61912;DHT22;49973;52.084;5.412;2023-05-07T00:38:02;14.40;99.90
61912;DHT22;49973;52.084;5.412;2023-05-07T00:40:31;14.40;99.90
61912;DHT22;49973;52.084;5.412;2023-05-07T00:43:01;14.40;99.90
61912;DHT22;49973;52.084;5.412;2023-05-07T00:45:30;14.40;99.90
61912;DHT22;49973;52.084;5.412;2023-05-07T00:48:00;14.40;99.90
61912;DHT22;49973;52.084;5.412;2023-05-07T00:50:29;14.40;99.90
61912;DHT22;49973;52.084;5.412;2023-05-07T00:52:58;14.40;99.90
61912;DHT22;49973;52.084;5.412;2023-05-07T00:55:27;14.40;99.90
61912;DHT22;49973;52.084;5.412;2023-05-07T00:57:56;14.30;99.90
61912;DHT22;49973;52.084;5.412;2023-05-07T01:00:26;14.40;99.90
61912;DHT22;49973;52.084;5.412;2023-05-07T01:02:55;14.50;99.90
61912;DHT22;49973;52.084;5.412;2023-05-07T01:05:26;14.40;99.90
61912;DHT22;49973;52.084;5.412;2023-05-07T01:07:56;14.40;99.90
61912;DHT22;49973;52.084;5.412;2023-05-07T01:10:26;14.60;99.90
61912;DHT22;49973;52.084;5.412;2023-05-07T01:12:55;14.40;99.90
61912;DHT22;49973;52.084;5.412;2023-05-07T01:15:24;14.40;99.90
61912;DHT22;49973;52.084;5.412;2023-05-07T01:17:54;14.30;99.90
61912;DHT22;49973;52.084;5.412;2023-05-07T01:20:31;14.50;99.90
61912;DHT22;49973;52.084;5.412;2023-05-07T01:23:02;14.30;99.90
61912;DHT22;49973;52.084;5.412;2023-05-07T01:25:31;14.40;99.90
61912;DHT22;49973;52.084;5.412;2023-05-07T01:28:01;14.50;99.90
61912;DHT22;49973;52.084;5.412;2023-05-07T01:30:34;14.40;99.90
61912;DHT22;49973;52.084;5.412;2023-05-07T01:33:09;14.40;99.90
61912;DHT22;49973;52.084;5.412;2023-05-07T01:35:41;14.30;99.90
61912;DHT22;49973;52.084;5.412;2023-05-07T01:38:13;14.20;99.90
61912;DHT22;49973;52.084;5.412;2023-05-07T01:40:42;14.40;99.90
61912;DHT22;49973;52.084;5.412;2023-05-07T01:43:12;14.30;99.90
61912;DHT22;49973;52.084;5.412;2023-05-07T01:45:41;14.30;99.90
61912;DHT22;49973;52.084;5.412;2023-05-07T01:48:11;14.30;99.90
61912;DHT22;49973;52.084;5.412;2023-05-07T01:50:41;14.30;99.90
61912;DHT22;49973;52.084;5.412;2023-05-07T01:53:11;14.30;99.90
61912;DHT22;49973;52.084;5.412;2023-05-07T01:55:41;14.30;99.90
61912;DHT22;49973;52.084;5.412;2023-05-07T01:58:10;14.30;99.90
61912;DHT22;49973;52.084;5.412;2023-05-07T02:00:39;14.50;99.90
61912;DHT22;49973;52.084;5.412;2023-05-07T02:03:08;14.40;99.90
61912;DHT22;49973;52.084;5.412;2023-05-07T02:05:45;14.40;99.90
61912;DHT22;49973;52.084;5.412;2023-05-07T02:08:35;14.40;99.90
61912;DHT22;49973;52.084;5.412;2023-05-07T02:11:05;14.40;99.90
61912;DHT22;49973;52.084;5.412;2023-05-07T02:13:36;14.40;99.90
61912;DHT22;49973;52.084;5.412;2023-05-07T02:16:05;14.40;99.90
61912;DHT22;49973;52.084;5.412;2023-05-07T02:18:34;14.50;99.90
61912;DHT22;49973;52.084;5.412;2023-05-07T02:21:03;14.60;99.90
61912;DHT22;49973;52.084;5.412;2023-05-07T02:23:32;14.50;99.90
61912;DHT22;49973;52.084;5.412;2023-05-07T02:26:04;14.50;99.90
61912;DHT22;49973;52.084;5.412;2023-05-07T02:28:34;14.50;99.90
61912;DHT22;49973;52.084;5.412;2023-05-07T02:31:05;14.50;99.90
61912;DHT22;49973;52.084;5.412;2023-05-07T02:33:34;14.40;99.90
61912;DHT22;49973;52.084;5.412;2023-05-07T02:36:07;14.50;99.90
61912;DHT22;49973;52.084;5.412;2023-05-07T02:38:40;14.50;99.90
61912;DHT22;49973;52.084;5.412;2023-05-07T02:41:10;14.50;99.90
61912;DHT22;49973;52.084;5.412;2023-05-07T02:43:39;14.50;99.90
61912;DHT22;49973;52.084;5.412;2023-05-07T02:46:09;14.40;99.90
61912;DHT22;49973;52.084;5.412;2023-05-07T02:48:42;14.30;99.90
61912;DHT22;49973;52.084;5.412;2023-05-07T02:51:10;14.50;99.90
61912;DHT22;49973;52.084;5.412;2023-05-07T02:53:41;14.40;99.90
61912;DHT22;49973;52.084;5.412;2023-05-07T02:56:10;14.30;99.90
61912;DHT22;49973;52.084;5.412;2023-05-07T02:58:40;14.30;99.90
61912;DHT22;49973;52.084;5.412;2023-05-07T03:01:09;14.30;99.90
61912;DHT22;49973;52.084;5.412;2023-05-07T03:03:46;14.30;99.90
61912;DHT22;49973;52.084;5.412;2023-05-07T03:06:15;14.30;99.90
61912;DHT22;49973;52.084;5.412;2023-05-07T03:08:44;14.30;99.90
61912;DHT22;49973;52.084;5.412;2023-05-07T03:11:12;14.30;99.90
61912;DHT22;49973;52.084;5.412;2023-05-07T03:13:43;14.30;99.90
61912;DHT22;49973;52.084;5.412;2023-05-07T03:16:12;14.30;99.90
61912;DHT22;49973;52.084;5.412;2023-05-07T03:18:40;14.40;99.90
61912;DHT22;49973;52.084;5.412;2023-05-07T03:21:09;14.30;99.90
61912;DHT22;49973;52.084;5.412;2023-05-07T03:23:38;14.30;99.90
61912;DHT22;49973;52.084;5.412;2023-05-07T03:26:07;14.20;99.90
61912;DHT22;49973;52.084;5.412;2023-05-07T03:28:36;14.20;99.90
61912;DHT22;49973;52.084;5.412;2023-05-07T03:31:10;14.10;99.90
61912;DHT22;49973;52.084;5.412;2023-05-07T03:33:51;14.10;99.90
61912;DHT22;49973;52.084;5.412;2023-05-07T03:36:20;14.00;99.90
61912;DHT22;49973;52.084;5.412;2023-05-07T03:38:50;14.00;99.90
61912;DHT22;49973;52.084;5.412;2023-05-07T03:41:22;13.90;99.90
61912;DHT22;49973;52.084;5.412;2023-05-07T03:43:51;13.90;99.90
61912;DHT22;49973;52.084;5.412;2023-05-07T03:46:21;13.90;99.90
61912;DHT22;49973;52.084;5.412;2023-05-07T03:48:50;13.80;99.90
61912;DHT22;49973;52.084;5.412;2023-05-07T03:51:20;13.70;99.90
61912;DHT22;49973;52.084;5.412;2023-05-07T03:53:49;13.70;99.90
61912;DHT22;49973;52.084;5.412;2023-05-07T03:56:21;13.80;99.90
61912;DHT22;49973;52.084;5.412;2023-05-07T03:58:54;13.80;99.90
61912;DHT22;49973;52.084;5.412;2023-05-07T04:01:24;14.00;99.90
61912;DHT22;49973;52.084;5.412;2023-05-07T04:03:52;13.80;99.90
61912;DHT22;49973;52.084;5.412;2023-05-07T04:06:21;13.80;99.90
61912;DHT22;49973;52.084;5.412;2023-05-07T04:08:50;13.80;99.90
61912;DHT22;49973;52.084;5.412;2023-05-07T04:11:18;13.80;99.90
61912;DHT22;49973;52.084;5.412;2023-05-07T04:13:47;13.80;99.90
61912;DHT22;49973;52.084;5.412;2023-05-07T04:16:21;13.90;99.90
61912;DHT22;49973;52.084;5.412;2023-05-07T04:18:51;14.00;99.90
61912;DHT22;49973;52.084;5.412;2023-05-07T04:21:20;13.90;99.90
61912;DHT22;49973;52.084;5.412;2023-05-07T04:23:50;14.00;99.90
61912;DHT22;49973;52.084;5.412;2023-05-07T04:26:19;14.10;99.90
61912;DHT22;49973;52.084;5.412;2023-05-07T04:28:48;14.00;99.90
61912;DHT22;49973;52.084;5.412;2023-05-07T04:31:18;14.10;99.90
61912;DHT22;49973;52.084;5.412;2023-05-07T04:33:52;14.10;99.90
61912;DHT22;49973;52.084;5.412;2023-05-07T04:36:21;14.20;99.90
61912;DHT22;49973;52.084;5.412;2023-05-07T04:38:56;14.20;99.90
61912;DHT22;49973;52.084;5.412;2023-05-07T04:41:25;14.20;99.90
61912;DHT22;49973;52.084;5.412;2023-05-07T04:43:54;14.20;99.90
61912;DHT22;49973;52.084;5.412;2023-05-07T04:46:24;14.30;99.90
61912;DHT22;49973;52.084;5.412;2023-05-07T04:48:56;14.40;99.90
61912;DHT22;49973;52.084;5.412;2023-05-07T04:51:24;14.30;99.90
61912;DHT22;49973;52.084;5.412;2023-05-07T04:53:53;14.30;99.90
61912;DHT22;49973;52.084;5.412;2023-05-07T04:56:22;14.40;99.90
61912;DHT22;49973;52.084;5.412;2023-05-07T04:58:51;14.50;99.90
61912;DHT22;49973;52.084;5.412;2023-05-07T05:01:21;14.40;99.90
61912;DHT22;49973;52.084;5.412;2023-05-07T05:03:50;14.40;99.90
61912;DHT22;49973;52.084;5.412;2023-05-07T05:06:21;14.50;99.90
61912;DHT22;49973;52.084;5.412;2023-05-07T05:08:50;14.50;99.90
61912;DHT22;49973;52.084;5.412;2023-05-07T05:11:20;14.50;99.90
61912;DHT22;49973;52.084;5.412;2023-05-07T05:13:49;14.50;99.90
61912;DHT22;49973;52.084;5.412;2023-05-07T05:16:20;14.50;99.90
61912;DHT22;49973;52.084;5.412;2023-05-07T05:18:49;14.50;99.90
61912;DHT22;49973;52.084;5.412;2023-05-07T05:21:20;14.50;99.90
61912;DHT22;49973;52.084;5.412;2023-05-07T05:23:52;14.60;99.90
61912;DHT22;49973;52.084;5.412;2023-05-07T05:26:24;14.60;99.90
61912;DHT22;49973;52.084;5.412;2023-05-07T05:28:53;14.60;99.90
61912;DHT22;49973;52.084;5.412;2023-05-07T05:31:24;14.70;99.90
61912;DHT22;49973;52.084;5.412;2023-05-07T05:33:52;14.80;99.90
61912;DHT22;49973;52.084;5.412;2023-05-07T05:36:22;14.80;99.90
61912;DHT22;49973;52.084;5.412;2023-05-07T05:38:55;14.80;99.90
61912;DHT22;49973;52.084;5.412;2023-05-07T05:41:24;14.80;99.90
61912;DHT22;49973;52.084;5.412;2023-05-07T05:43:53;14.90;99.90
61912;DHT22;49973;52.084;5.412;2023-05-07T05:46:22;14.90;99.90
61912;DHT22;49973;52.084;5.412;2023-05-07T05:48:51;14.90;99.90
61912;DHT22;49973;52.084;5.412;2023-05-07T05:51:22;15.00;99.90
61912;DHT22;49973;52.084;5.412;2023-05-07T05:53:50;15.00;99.90
61912;DHT22;49973;52.084;5.412;2023-05-07T05:56:19;15.00;99.90
61912;DHT22;49973;52.084;5.412;2023-05-07T05:58:48;15.10;99.90
61912;DHT22;49973;52.084;5.412;2023-05-07T06:01:17;15.20;99.90
61912;DHT22;49973;52.084;5.412;2023-05-07T06:03:47;15.10;99.90
61912;DHT22;49973;52.084;5.412;2023-05-07T06:06:16;15.20;99.90
61912;DHT22;49973;52.084;5.412;2023-05-07T06:08:46;15.20;99.90
61912;DHT22;49973;52.084;5.412;2023-05-07T06:11:20;15.20;99.90
61912;DHT22;49973;52.084;5.412;2023-05-07T06:13:49;15.20;99.90
61912;DHT22;49973;52.084;5.412;2023-05-07T06:16:18;15.20;99.90
61912;DHT22;49973;52.084;5.412;2023-05-07T06:18:47;15.20;99.90
61912;DHT22;49973;52.084;5.412;2023-05-07T06:21:16;15.20;99.90
61912;DHT22;49973;52.084;5.412;2023-05-07T06:23:46;15.20;99.90
61912;DHT22;49973;52.084;5.412;2023-05-07T06:26:15;15.10;99.90
61912;DHT22;49973;52.084;5.412;2023-05-07T06:28:46;15.20;99.90
61912;DHT22;49973;52.084;5.412;2023-05-07T06:31:17;15.20;99.90
61912;DHT22;49973;52.084;5.412;2023-05-07T06:33:55;15.20;99.90
61912;DHT22;49973;52.084;5.412;2023-05-07T06:36:32;15.20;99.90
61912;DHT22;49973;52.084;5.412;2023-05-07T06:39:06;15.20;99.90
61912;DHT22;49973;52.084;5.412;2023-05-07T06:41:36;15.30;99.90
61912;DHT22;49973;52.084;5.412;2023-05-07T06:44:09;15.30;99.90
61912;DHT22;49973;52.084;5.412;2023-05-07T06:46:43;15.20;99.90
61912;DHT22;49973;52.084;5.412;2023-05-07T06:49:13;15.20;99.90
61912;DHT22;49973;52.084;5.412;2023-05-07T06:51:42;15.30;99.90
61912;DHT22;49973;52.084;5.412;2023-05-07T06:54:12;15.30;99.90
61912;DHT22;49973;52.084;5.412;2023-05-07T06:56:43;15.30;99.90
61912;DHT22;49973;52.084;5.412;2023-05-07T06:59:11;15.30;99.90
61912;DHT22;49973;52.084;5.412;2023-05-07T07:01:41;15.40;99.90
61912;DHT22;49973;52.084;5.412;2023-05-07T07:04:11;15.50;99.90
61912;DHT22;49973;52.084;5.412;2023-05-07T07:06:42;15.60;99.90
61912;DHT22;49973;52.084;5.412;2023-05-07T07:09:14;15.60;99.90
61912;DHT22;49973;52.084;5.412;2023-05-07T07:11:43;15.80;99.90
61912;DHT22;49973;52.084;5.412;2023-05-07T07:14:11;16.00;99.90
61912;DHT22;49973;52.084;5.412;2023-05-07T07:16:45;16.00;99.90
61912;DHT22;49973;52.084;5.412;2023-05-07T07:19:17;16.10;99.90
61912;DHT22;49973;52.084;5.412;2023-05-07T07:21:49;16.20;99.90
61912;DHT22;49973;52.084;5.412;2023-05-07T07:24:19;16.50;99.90
61912;DHT22;49973;52.084;5.412;2023-05-07T07:26:52;17.10;99.90
61912;DHT22;49973;52.084;5.412;2023-05-07T07:29:23;18.10;99.90
61912;DHT22;49973;52.084;5.412;2023-05-07T07:31:54;18.60;99.90
61912;DHT22;49973;52.084;5.412;2023-05-07T07:34:23;19.00;99.90
61912;DHT22;49973;52.084;5.412;2023-05-07T07:36:52;19.10;99.90
61912;DHT22;49973;52.084;5.412;2023-05-07T07:39:22;19.20;99.90
61912;DHT22;49973;52.084;5.412;2023-05-07T07:41:54;19.10;99.90
61912;DHT22;49973;52.084;5.412;2023-05-07T07:44:22;19.00;99.90
61912;DHT22;49973;52.084;5.412;2023-05-07T07:46:57;18.90;99.90
61912;DHT22;49973;52.084;5.412;2023-05-07T07:49:27;18.90;99.90
61912;DHT22;49973;52.084;5.412;2023-05-07T07:51:57;18.90;99.90
61912;DHT22;49973;52.084;5.412;2023-05-07T07:54:29;19.10;99.90
61912;DHT22;49973;52.084;5.412;2023-05-07T07:56:58;19.30;99.90
61912;DHT22;49973;52.084;5.412;2023-05-07T07:59:31;19.40;99.90
61912;DHT22;49973;52.084;5.412;2023-05-07T08:01:59;19.70;99.90
61912;DHT22;49973;52.084;5.412;2023-05-07T08:04:29;19.80;99.90
61912;DHT22;49973;52.084;5.412;2023-05-07T08:07:03;19.70;99.90
61912;DHT22;49973;52.084;5.412;2023-05-07T08:09:37;19.60;99.90
61912;DHT22;49973;52.084;5.412;2023-05-07T08:12:07;19.30;99.90
61912;DHT22;49973;52.084;5.412;2023-05-07T08:14:36;19.10;99.90
61912;DHT22;49973;52.084;5.412;2023-05-07T08:17:06;18.90;99.90
61912;DHT22;49973;52.084;5.412;2023-05-07T08:19:37;18.70;99.90
61912;DHT22;49973;52.084;5.412;2023-05-07T08:22:09;18.50;99.90
61912;DHT22;49973;52.084;5.412;2023-05-07T08:24:40;18.30;99.90
61912;DHT22;49973;52.084;5.412;2023-05-07T08:27:09;18.20;99.90
61912;DHT22;49973;52.084;5.412;2023-05-07T08:29:40;18.00;99.90
61912;DHT22;49973;52.084;5.412;2023-05-07T08:32:08;17.70;99.90
61912;DHT22;49973;52.084;5.412;2023-05-07T08:34:37;17.60;99.90
61912;DHT22;49973;52.084;5.412;2023-05-07T08:37:07;17.40;99.90
61912;DHT22;49973;52.084;5.412;2023-05-07T08:39:36;17.20;99.90
61912;DHT22;49973;52.084;5.412;2023-05-07T08:42:13;17.20;99.90
61912;DHT22;49973;52.084;5.412;2023-05-07T08:44:45;17.20;99.90
61912;DHT22;49973;52.084;5.412;2023-05-07T08:47:18;17.10;99.90
61912;DHT22;49973;52.084;5.412;2023-05-07T08:49:50;17.00;99.90
61912;DHT22;49973;52.084;5.412;2023-05-07T08:52:19;17.00;99.90
61912;DHT22;49973;52.084;5.412;2023-05-07T08:54:48;16.90;99.90
61912;DHT22;49973;52.084;5.412;2023-05-07T08:57:19;16.90;99.90
61912;DHT22;49973;52.084;5.412;2023-05-07T08:59:49;16.90;99.90
61912;DHT22;49973;52.084;5.412;2023-05-07T09:02:18;16.80;99.90
61912;DHT22;49973;52.084;5.412;2023-05-07T09:04:47;16.90;99.90
61912;DHT22;49973;52.084;5.412;2023-05-07T09:07:16;16.70;99.90
61912;DHT22;49973;52.084;5.412;2023-05-07T09:09:46;16.70;99.90
61912;DHT22;49973;52.084;5.412;2023-05-07T09:12:15;16.60;99.90
61912;DHT22;49973;52.084;5.412;2023-05-07T09:14:45;16.60;99.90
61912;DHT22;49973;52.084;5.412;2023-05-07T09:17:15;16.70;99.90
61912;DHT22;49973;52.084;5.412;2023-05-07T09:19:44;16.70;99.90
61912;DHT22;49973;52.084;5.412;2023-05-07T09:22:15;16.90;99.90
61912;DHT22;49973;52.084;5.412;2023-05-07T09:24:54;16.80;99.90
61912;DHT22;49973;52.084;5.412;2023-05-07T09:27:26;17.00;99.90
61912;DHT22;49973;52.084;5.412;2023-05-07T09:29:57;17.10;99.90
61912;DHT22;49973;52.084;5.412;2023-05-07T09:32:26;17.20;99.90
61912;DHT22;49973;52.084;5.412;2023-05-07T09:34:56;17.30;99.90
61912;DHT22;49973;52.084;5.412;2023-05-07T09:37:26;17.40;99.90
61912;DHT22;49973;52.084;5.412;2023-05-07T09:39:55;17.50;99.90
61912;DHT22;49973;52.084;5.412;2023-05-07T09:42:25;17.60;99.90
61912;DHT22;49973;52.084;5.412;2023-05-07T09:44:59;17.70;99.90
61912;DHT22;49973;52.084;5.412;2023-05-07T09:47:36;17.80;99.90
61912;DHT22;49973;52.084;5.412;2023-05-07T09:50:08;18.00;99.90
61912;DHT22;49973;52.084;5.412;2023-05-07T09:52:40;18.10;99.90
61912;DHT22;49973;52.084;5.412;2023-05-07T09:55:12;18.30;99.90
61912;DHT22;49973;52.084;5.412;2023-05-07T09:57:43;18.40;99.90
61912;DHT22;49973;52.084;5.412;2023-05-07T10:00:14;18.50;99.90
61912;DHT22;49973;52.084;5.412;2023-05-07T10:02:56;18.60;99.90
61912;DHT22;49973;52.084;5.412;2023-05-07T10:05:36;18.70;99.90
61912;DHT22;49973;52.084;5.412;2023-05-07T10:08:06;18.80;99.90
61912;DHT22;49973;52.084;5.412;2023-05-07T10:10:38;19.00;99.90
61912;DHT22;49973;52.084;5.412;2023-05-07T10:13:10;19.10;99.90
61912;DHT22;49973;52.084;5.412;2023-05-07T10:15:45;19.20;99.90
61912;DHT22;49973;52.084;5.412;2023-05-07T10:18:16;19.20;99.90
61912;DHT22;49973;52.084;5.412;2023-05-07T10:20:51;19.30;99.90
61912;DHT22;49973;52.084;5.412;2023-05-07T10:23:23;19.40;99.90
61912;DHT22;49973;52.084;5.412;2023-05-07T10:25:57;19.40;99.90
61912;DHT22;49973;52.084;5.412;2023-05-07T10:28:33;19.50;99.90
61912;DHT22;49973;52.084;5.412;2023-05-07T10:31:15;19.60;99.90
61912;DHT22;49973;52.084;5.412;2023-05-07T10:33:49;19.60;99.90
61912;DHT22;49973;52.084;5.412;2023-05-07T10:36:22;19.80;99.90
61912;DHT22;49973;52.084;5.412;2023-05-07T10:38:53;20.10;99.90
61912;DHT22;49973;52.084;5.412;2023-05-07T10:41:24;20.30;99.90
61912;DHT22;49973;52.084;5.412;2023-05-07T10:43:53;20.60;99.90
61912;DHT22;49973;52.084;5.412;2023-05-07T10:46:30;20.90;99.90
61912;DHT22;49973;52.084;5.412;2023-05-07T10:49:19;21.40;99.90
61912;DHT22;49973;52.084;5.412;2023-05-07T10:52:15;22.00;99.90
61912;DHT22;49973;52.084;5.412;2023-05-07T10:55:19;22.90;99.90
61912;DHT22;49973;52.084;5.412;2023-05-07T10:58:25;23.70;99.90
61912;DHT22;49973;52.084;5.412;2023-05-07T11:01:50;24.40;99.90
61912;DHT22;49973;52.084;5.412;2023-05-07T11:04:26;24.90;99.90
61912;DHT22;49973;52.084;5.412;2023-05-07T11:07:24;25.10;99.90
61912;DHT22;49973;52.084;5.412;2023-05-07T11:10:01;25.20;99.90
61912;DHT22;49973;52.084;5.412;2023-05-07T11:12:51;25.00;99.90
61912;DHT22;49973;52.084;5.412;2023-05-07T11:15:41;24.90;99.90
61912;DHT22;49973;52.084;5.412;2023-05-07T11:21:34;24.70;99.90
61912;DHT22;49973;52.084;5.412;2023-05-07T11:24:23;24.50;99.90
61912;DHT22;49973;52.084;5.412;2023-05-07T11:26:59;24.40;99.90
61912;DHT22;49973;52.084;5.412;2023-05-07T11:29:30;24.30;99.90
61912;DHT22;49973;52.084;5.412;2023-05-07T11:32:05;24.30;99.90
61912;DHT22;49973;52.084;5.412;2023-05-07T11:34:40;24.40;99.90
61912;DHT22;49973;52.084;5.412;2023-05-07T11:37:11;24.70;99.90
61912;DHT22;49973;52.084;5.412;2023-05-07T11:39:51;24.90;99.90
61912;DHT22;49973;52.084;5.412;2023-05-07T11:42:28;24.90;99.90
61912;DHT22;49973;52.084;5.412;2023-05-07T11:44:57;24.80;99.90
61912;DHT22;49973;52.084;5.412;2023-05-07T11:47:26;24.70;99.90
61912;DHT22;49973;52.084;5.412;2023-05-07T11:49:54;24.50;99.90
61912;DHT22;49973;52.084;5.412;2023-05-07T11:52:24;24.20;99.90
61912;DHT22;49973;52.084;5.412;2023-05-07T11:54:54;23.90;99.90
61912;DHT22;49973;52.084;5.412;2023-05-07T11:57:23;23.70;99.90
61912;DHT22;49973;52.084;5.412;2023-05-07T11:59:53;23.70;99.90
61912;DHT22;49973;52.084;5.412;2023-05-07T12:02:21;23.90;99.90
61912;DHT22;49973;52.084;5.412;2023-05-07T12:04:52;24.20;99.90
61912;DHT22;49973;52.084;5.412;2023-05-07T12:07:21;24.50;99.90
61912;DHT22;49973;52.084;5.412;2023-05-07T12:09:53;24.80;99.90
61912;DHT22;49973;52.084;5.412;2023-05-07T12:12:22;24.90;99.90
61912;DHT22;49973;52.084;5.412;2023-05-07T12:14:50;25.00;99.90
61912;DHT22;49973;52.084;5.412;2023-05-07T12:17:19;25.10;99.90
61912;DHT22;49973;52.084;5.412;2023-05-07T12:19:48;25.10;99.90
61912;DHT22;49973;52.084;5.412;2023-05-07T12:22:18;25.30;99.90
61912;DHT22;49973;52.084;5.412;2023-05-07T12:24:47;25.70;99.90
61912;DHT22;49973;52.084;5.412;2023-05-07T12:27:18;26.10;99.90
61912;DHT22;49973;52.084;5.412;2023-05-07T12:29:48;26.60;99.90
61912;DHT22;49973;52.084;5.412;2023-05-07T12:32:17;27.10;99.90
61912;DHT22;49973;52.084;5.412;2023-05-07T12:34:49;27.40;99.90
61912;DHT22;49973;52.084;5.412;2023-05-07T12:37:23;27.80;99.90
61912;DHT22;49973;52.084;5.412;2023-05-07T12:40:04;28.10;99.90
61912;DHT22;49973;52.084;5.412;2023-05-07T12:42:36;28.50;99.90
61912;DHT22;49973;52.084;5.412;2023-05-07T12:45:09;28.90;99.90
61912;DHT22;49973;52.084;5.412;2023-05-07T12:47:38;29.10;99.90
61912;DHT22;49973;52.084;5.412;2023-05-07T12:50:07;29.00;99.90
61912;DHT22;49973;52.084;5.412;2023-05-07T12:52:36;29.10;99.90
61912;DHT22;49973;52.084;5.412;2023-05-07T12:55:05;29.20;99.90
61912;DHT22;49973;52.084;5.412;2023-05-07T12:57:39;29.20;99.90
61912;DHT22;49973;52.084;5.412;2023-05-07T13:00:09;29.10;99.90
61912;DHT22;49973;52.084;5.412;2023-05-07T13:02:39;28.90;99.90
61912;DHT22;49973;52.084;5.412;2023-05-07T13:05:08;28.70;99.90
61912;DHT22;49973;52.084;5.412;2023-05-07T13:07:37;28.40;99.90
61912;DHT22;49973;52.084;5.412;2023-05-07T13:10:07;28.10;99.90
61912;DHT22;49973;52.084;5.412;2023-05-07T13:12:36;27.80;99.90
61912;DHT22;49973;52.084;5.412;2023-05-07T13:15:07;27.40;99.90
61912;DHT22;49973;52.084;5.412;2023-05-07T13:17:36;26.90;99.90
61912;DHT22;49973;52.084;5.412;2023-05-07T13:20:06;26.50;99.90
61912;DHT22;49973;52.084;5.412;2023-05-07T13:22:35;26.20;99.90
61912;DHT22;49973;52.084;5.412;2023-05-07T13:25:04;25.90;99.90
61912;DHT22;49973;52.084;5.412;2023-05-07T13:27:33;25.70;99.90
61912;DHT22;49973;52.084;5.412;2023-05-07T13:30:06;25.40;99.90
61912;DHT22;49973;52.084;5.412;2023-05-07T13:32:35;25.10;99.90
61912;DHT22;49973;52.084;5.412;2023-05-07T13:35:04;24.80;99.90
61912;DHT22;49973;52.084;5.412;2023-05-07T13:37:33;24.60;99.90
61912;DHT22;49973;52.084;5.412;2023-05-07T13:40:02;24.40;99.90
61912;DHT22;49973;52.084;5.412;2023-05-07T13:42:31;24.20;99.90
61912;DHT22;49973;52.084;5.412;2023-05-07T13:45:00;24.00;99.90
61912;DHT22;49973;52.084;5.412;2023-05-07T13:47:32;23.80;99.90
61912;DHT22;49973;52.084;5.412;2023-05-07T13:50:01;23.70;99.90
61912;DHT22;49973;52.084;5.412;2023-05-07T13:52:30;23.60;99.90
61912;DHT22;49973;52.084;5.412;2023-05-07T13:54:58;23.50;99.90
61912;DHT22;49973;52.084;5.412;2023-05-07T13:57:26;23.50;99.90
61912;DHT22;49973;52.084;5.412;2023-05-07T13:59:55;23.50;99.90
61912;DHT22;49973;52.084;5.412;2023-05-07T14:02:24;23.50;99.90
61912;DHT22;49973;52.084;5.412;2023-05-07T14:04:54;23.60;99.90
61912;DHT22;49973;52.084;5.412;2023-05-07T14:07:23;23.60;99.90
61912;DHT22;49973;52.084;5.412;2023-05-07T14:09:51;23.60;99.90
61912;DHT22;49973;52.084;5.412;2023-05-07T14:12:20;23.60;99.90
61912;DHT22;49973;52.084;5.412;2023-05-07T14:14:48;23.60;99.90
61912;DHT22;49973;52.084;5.412;2023-05-07T14:17:18;23.70;99.90
61912;DHT22;49973;52.084;5.412;2023-05-07T14:19:47;23.70;99.90
61912;DHT22;49973;52.084;5.412;2023-05-07T14:22:17;23.80;99.90
61912;DHT22;49973;52.084;5.412;2023-05-07T14:24:46;23.80;99.90
61912;DHT22;49973;52.084;5.412;2023-05-07T14:27:31;23.80;99.90
61912;DHT22;49973;52.084;5.412;2023-05-07T14:30:00;23.80;99.90
61912;DHT22;49973;52.084;5.412;2023-05-07T14:32:29;23.70;99.90
61912;DHT22;49973;52.084;5.412;2023-05-07T14:34:57;23.70;99.90
61912;DHT22;49973;52.084;5.412;2023-05-07T14:37:27;23.70;99.90
61912;DHT22;49973;52.084;5.412;2023-05-07T14:39:56;23.80;99.90
61912;DHT22;49973;52.084;5.412;2023-05-07T14:42:24;23.90;99.90
61912;DHT22;49973;52.084;5.412;2023-05-07T14:44:53;24.00;99.90
61912;DHT22;49973;52.084;5.412;2023-05-07T14:47:22;24.10;99.90
61912;DHT22;49973;52.084;5.412;2023-05-07T14:49:50;24.10;99.90
61912;DHT22;49973;52.084;5.412;2023-05-07T14:52:20;24.10;99.90
61912;DHT22;49973;52.084;5.412;2023-05-07T14:54:50;24.00;99.90
61912;DHT22;49973;52.084;5.412;2023-05-07T14:57:18;23.90;99.90
61912;DHT22;49973;52.084;5.412;2023-05-07T14:59:47;23.70;99.90
61912;DHT22;49973;52.084;5.412;2023-05-07T15:02:16;23.50;99.90
61912;DHT22;49973;52.084;5.412;2023-05-07T15:04:47;23.20;99.90
61912;DHT22;49973;52.084;5.412;2023-05-07T15:07:16;23.10;99.90
61912;DHT22;49973;52.084;5.412;2023-05-07T15:09:45;22.80;99.90
61912;DHT22;49973;52.084;5.412;2023-05-07T15:12:15;22.60;99.90
61912;DHT22;49973;52.084;5.412;2023-05-07T15:14:44;22.40;99.90
61912;DHT22;49973;52.084;5.412;2023-05-07T15:17:13;22.20;99.90
61912;DHT22;49973;52.084;5.412;2023-05-07T15:19:42;22.10;99.90
61912;DHT22;49973;52.084;5.412;2023-05-07T15:22:11;21.90;99.90
61912;DHT22;49973;52.084;5.412;2023-05-07T15:24:40;21.70;99.90
61912;DHT22;49973;52.084;5.412;2023-05-07T15:27:09;21.60;99.90
61912;DHT22;49973;52.084;5.412;2023-05-07T15:29:39;21.40;99.90
61912;DHT22;49973;52.084;5.412;2023-05-07T15:32:08;21.20;99.90
61912;DHT22;49973;52.084;5.412;2023-05-07T15:34:37;21.10;99.90
61912;DHT22;49973;52.084;5.412;2023-05-07T15:37:06;21.00;99.90
61912;DHT22;49973;52.084;5.412;2023-05-07T15:39:35;20.80;99.90
61912;DHT22;49973;52.084;5.412;2023-05-07T15:42:04;20.50;99.90
61912;DHT22;49973;52.084;5.412;2023-05-07T15:44:32;20.20;99.90
61912;DHT22;49973;52.084;5.412;2023-05-07T15:47:03;19.90;99.90
61912;DHT22;49973;52.084;5.412;2023-05-07T15:49:32;19.50;99.90
61912;DHT22;49973;52.084;5.412;2023-05-07T15:52:01;19.20;99.90
61912;DHT22;49973;52.084;5.412;2023-05-07T15:54:30;18.90;99.90
61912;DHT22;49973;52.084;5.412;2023-05-07T15:56:58;18.70;99.90